createdAt,value
2023-01-26T00:01:27.761Z,92.70
2023-01-26T00:03:54.506Z,92.55
2023-01-26T00:06:22.284Z,92.10
2023-01-26T00:08:51.430Z,92.45
2023-01-26T00:11:30.246Z,92.70
2023-01-26T00:13:58.764Z,92.24
2023-01-26T00:16:26.408Z,91.83
2023-01-26T00:18:54.035Z,92.48
2023-01-26T00:21:22.185Z,92.09
2023-01-26T00:23:50.297Z,92.20
2023-01-26T00:26:19.504Z,92.55
2023-01-26T00:28:46.313Z,93.38
2023-01-26T00:31:15.710Z,94.25
2023-01-26T00:33:42.458Z,94.06
2023-01-26T00:36:09.447Z,93.49
2023-01-26T00:38:36.063Z,93.39
2023-01-26T00:41:02.748Z,93.57
2023-01-26T00:43:29.548Z,93.46
2023-01-26T00:45:56.309Z,93.00
2023-01-26T00:48:24.648Z,93.49
2023-01-26T00:50:52.851Z,92.74
2023-01-26T00:53:19.956Z,91.91
2023-01-26T00:55:46.582Z,93.44
2023-01-26T00:58:13.348Z,91.88
2023-01-26T01:00:40.044Z,91.97
2023-01-26T01:03:07.406Z,92.54
2023-01-26T01:05:34.853Z,92.32
2023-01-26T01:08:01.973Z,92.76
2023-01-26T01:10:28.977Z,93.24
2023-01-26T01:12:56.702Z,93.14
2023-01-26T01:15:24.183Z,92.84
2023-01-26T01:17:51.192Z,92.64
2023-01-26T01:20:17.996Z,92.59
2023-01-26T01:22:44.789Z,92.05
2023-01-26T01:25:11.549Z,91.95
2023-01-26T01:27:38.197Z,92.91
2023-01-26T01:30:08.083Z,93.19
2023-01-26T01:32:39.966Z,93.31
2023-01-26T01:35:07.549Z,92.92
2023-01-26T01:37:34.220Z,93.19
2023-01-26T01:40:00.917Z,91.98
2023-01-26T01:42:28.145Z,92.42
2023-01-26T01:45:32.101Z,92.44
2023-01-26T01:48:03.794Z,92.31
2023-01-26T01:50:37.291Z,91.54
2023-01-26T01:53:05.582Z,92.45
2023-01-26T01:55:32.579Z,91.92
2023-01-26T01:58:01.628Z,91.52
2023-01-26T02:00:29.063Z,92.43
2023-01-26T02:03:19.398Z,92.02
2023-01-26T02:05:54.985Z,91.95
2023-01-26T02:08:27.061Z,91.84
2023-01-26T02:10:58.391Z,92.17
2023-01-26T02:13:26.440Z,93.16
2023-01-26T02:15:53.645Z,92.18
2023-01-26T02:18:20.422Z,91.92
2023-01-26T02:20:51.799Z,92.12
2023-01-26T02:23:22.502Z,92.26
2023-01-26T02:26:12.372Z,92.79
2023-01-26T02:28:39.914Z,91.85
2023-01-26T02:31:07.931Z,91.40
2023-01-26T02:33:35.341Z,90.66
2023-01-26T02:36:03.465Z,91.83
2023-01-26T02:38:59.185Z,91.84
2023-01-26T02:41:44.586Z,91.30
2023-01-26T02:44:12.724Z,91.69
2023-01-26T02:46:39.719Z,91.43
2023-01-26T02:49:25.080Z,91.87
2023-01-26T02:51:51.728Z,91.83
2023-01-26T02:54:36.972Z,91.81
2023-01-26T02:57:03.638Z,91.97
2023-01-26T02:59:30.240Z,91.66
2023-01-26T03:01:58.232Z,90.41
2023-01-26T03:04:25.135Z,91.32
2023-01-26T03:06:52.020Z,91.13
2023-01-26T03:09:18.737Z,90.81
2023-01-26T03:11:45.402Z,91.46
2023-01-26T03:14:13.559Z,91.22
2023-01-26T03:16:40.652Z,91.51
2023-01-26T03:19:28.311Z,91.00
2023-01-26T03:22:13.880Z,91.60
2023-01-26T03:24:59.387Z,91.52
2023-01-26T03:27:29.124Z,90.23
2023-01-26T03:29:57.161Z,89.45
2023-01-26T03:32:25.242Z,90.11
2023-01-26T03:34:52.121Z,90.45
2023-01-26T03:37:22.700Z,91.85
2023-01-26T03:40:11.029Z,91.25
2023-01-26T03:42:57.047Z,91.91
2023-01-26T03:45:42.577Z,91.85
2023-01-26T03:48:30.708Z,91.64
2023-01-26T03:51:16.474Z,90.91
2023-01-26T03:54:02.282Z,91.22
2023-01-26T03:56:32.987Z,91.19
2023-01-26T03:59:12.948Z,92.15
2023-01-26T04:02:03.314Z,91.67
2023-01-26T04:04:48.257Z,91.06
2023-01-26T04:07:33.861Z,91.22
2023-01-26T04:10:00.545Z,90.96
2023-01-26T04:12:27.174Z,90.91
2023-01-26T04:15:12.527Z,90.07
2023-01-26T04:17:57.751Z,90.33
2023-01-26T04:20:43.128Z,91.83
2023-01-26T04:23:18.549Z,91.50
2023-01-26T04:25:45.193Z,90.56
2023-01-26T04:28:11.791Z,92.28
2023-01-26T04:30:39.167Z,93.18
2023-01-26T04:33:05.840Z,92.58
2023-01-26T04:35:33.712Z,93.74
2023-01-26T04:38:00.359Z,93.56
2023-01-26T04:40:27.104Z,94.46
2023-01-26T04:42:53.745Z,94.39
2023-01-26T04:45:20.349Z,93.91
2023-01-26T04:47:46.972Z,94.11
2023-01-26T04:50:13.897Z,93.58
2023-01-26T04:52:40.715Z,94.88
2023-01-26T04:55:07.783Z,94.68
2023-01-26T04:57:34.391Z,93.74
2023-01-26T05:00:01.052Z,93.92
2023-01-26T05:02:27.981Z,93.82
2023-01-26T05:04:54.844Z,93.86
2023-01-26T05:07:22.099Z,93.42
2023-01-26T05:09:49.445Z,94.61
2023-01-26T05:12:34.363Z,94.73
2023-01-26T05:15:01.068Z,93.35
2023-01-26T05:17:27.711Z,93.65
2023-01-26T05:19:54.343Z,93.61
2023-01-26T05:22:20.983Z,93.36
2023-01-26T05:24:48.082Z,92.15
2023-01-26T05:27:32.702Z,92.17
2023-01-26T05:30:02.095Z,92.88
2023-01-26T05:32:30.041Z,93.10
2023-01-26T05:34:57.418Z,93.33
2023-01-26T05:37:25.797Z,92.89
2023-01-26T05:39:52.742Z,92.67
2023-01-26T05:42:19.427Z,92.11
2023-01-26T05:44:46.015Z,93.32
2023-01-26T05:47:12.661Z,92.34
2023-01-26T05:49:42.781Z,92.30
2023-01-26T05:52:11.161Z,92.46
2023-01-26T05:54:37.794Z,92.63
2023-01-26T05:57:04.591Z,93.51
2023-01-26T05:59:31.184Z,93.08
2023-01-26T06:01:57.912Z,93.26
2023-01-26T06:04:24.779Z,93.22
2023-01-26T06:06:55.807Z,93.23
2023-01-26T06:09:22.996Z,92.51
2023-01-26T06:11:49.854Z,92.66
2023-01-26T06:14:16.601Z,93.17
2023-01-26T06:16:43.259Z,92.65
2023-01-26T06:19:10.637Z,93.46
2023-01-26T06:21:37.458Z,94.18
2023-01-26T06:24:04.518Z,93.63
2023-01-26T06:26:31.160Z,93.50
2023-01-26T06:28:57.901Z,93.65
2023-01-26T06:31:25.074Z,94.25
2023-01-26T06:33:51.790Z,94.35
2023-01-26T06:36:18.414Z,93.38
2023-01-26T06:38:47.461Z,92.94
2023-01-26T06:41:14.447Z,93.52
2023-01-26T06:43:45.293Z,93.25
2023-01-26T06:46:12.487Z,93.38
2023-01-26T06:48:39.484Z,92.21
2023-01-26T06:51:42.645Z,92.16
2023-01-26T06:54:10.634Z,92.29
2023-01-26T06:56:37.577Z,91.82
2023-01-26T06:59:05.479Z,91.61
2023-01-26T07:01:39.069Z,91.93
2023-01-26T07:04:05.911Z,91.62
2023-01-26T07:06:32.622Z,92.81
2023-01-26T07:08:59.266Z,93.11
2023-01-26T07:11:25.975Z,92.05
2023-01-26T07:13:52.663Z,92.58
2023-01-26T07:16:19.460Z,93.07
2023-01-26T07:18:46.166Z,93.83
2023-01-26T07:21:15.801Z,93.27
2023-01-26T07:23:42.562Z,94.52
2023-01-26T07:26:09.637Z,93.63
2023-01-26T07:28:37.616Z,93.13
2023-01-26T07:31:07.075Z,93.04
2023-01-26T07:33:34.678Z,93.44
2023-01-26T07:36:01.775Z,93.26
2023-01-26T07:38:31.267Z,92.53
2023-01-26T07:40:58.029Z,92.71
2023-01-26T07:43:24.708Z,92.56
2023-01-26T07:45:53.862Z,92.15
2023-01-26T07:48:22.884Z,91.73
2023-01-26T07:50:49.804Z,91.82
2023-01-26T07:53:22.792Z,91.57
2023-01-26T07:55:49.600Z,92.19
2023-01-26T07:58:17.971Z,91.38
2023-01-26T08:00:47.234Z,91.80
2023-01-26T08:03:14.152Z,91.68
2023-01-26T08:05:40.782Z,91.37
2023-01-26T08:08:09.633Z,91.72
2023-01-26T08:10:36.277Z,91.54
2023-01-26T08:13:03.056Z,91.48
2023-01-26T08:15:30.416Z,91.54
2023-01-26T08:17:57.324Z,91.18
2023-01-26T08:20:23.974Z,91.42
2023-01-26T08:22:50.659Z,91.50
2023-01-26T08:25:17.285Z,91.92
2023-01-26T08:27:44.106Z,92.50
2023-01-26T08:30:11.879Z,92.03
2023-01-26T08:32:38.714Z,91.70
2023-01-26T08:35:05.783Z,91.75
2023-01-26T08:37:33.656Z,91.15
2023-01-26T08:40:00.258Z,91.07
2023-01-26T08:42:27.227Z,90.42
2023-01-26T08:44:54.048Z,90.92
2023-01-26T08:47:20.704Z,91.65
2023-01-26T08:49:47.351Z,92.07
2023-01-26T08:52:14.073Z,92.35
2023-01-26T08:54:40.697Z,92.59
2023-01-26T08:57:07.317Z,92.70
2023-01-26T08:59:33.972Z,92.09
2023-01-26T09:02:00.800Z,92.16
2023-01-26T09:04:27.631Z,93.29
2023-01-26T09:06:54.457Z,92.96
2023-01-26T09:09:21.180Z,92.88
2023-01-26T09:11:47.821Z,93.04
2023-01-26T09:14:14.550Z,92.60
2023-01-26T09:16:41.403Z,92.04
2023-01-26T09:19:08.153Z,92.66
2023-01-26T09:21:34.792Z,91.74
2023-01-26T09:24:02.494Z,92.11
2023-01-26T09:26:30.712Z,91.05
2023-01-26T09:28:57.906Z,91.47
2023-01-26T09:31:24.635Z,90.98
2023-01-26T09:33:51.723Z,91.51
2023-01-26T09:36:18.936Z,91.95
2023-01-26T09:38:45.742Z,92.66
2023-01-26T09:42:09.662Z,91.29
2023-01-26T09:44:59.696Z,91.06
2023-01-26T09:47:35.931Z,90.79
2023-01-26T09:50:11.556Z,90.80
2023-01-26T09:52:56.083Z,90.90
2023-01-26T09:55:24.831Z,89.88
2023-01-26T09:57:58.443Z,90.57
2023-01-26T10:00:43.852Z,90.01
2023-01-26T10:03:27.267Z,90.31
2023-01-26T10:06:29.487Z,90.82
2023-01-26T10:09:00.639Z,90.25
2023-01-26T10:11:33.273Z,90.54
2023-01-26T10:14:11.514Z,89.01
2023-01-26T10:16:38.500Z,88.57
2023-01-26T10:19:28.649Z,88.84
2023-01-26T10:21:57.479Z,88.28
2023-01-26T10:24:24.311Z,88.03
2023-01-26T10:26:56.556Z,88.48
2023-01-26T10:29:24.022Z,88.49
2023-01-26T10:31:50.767Z,89.63
2023-01-26T10:34:26.335Z,90.25
2023-01-26T10:37:02.454Z,89.42
2023-01-26T10:39:29.070Z,89.40
2023-01-26T10:42:01.004Z,87.50
2023-01-26T10:44:37.893Z,87.20
2023-01-26T10:47:25.956Z,87.00
2023-01-26T10:49:52.652Z,87.51
2023-01-26T10:52:25.107Z,87.22
2023-01-26T10:54:53.961Z,86.42
2023-01-26T10:57:32.650Z,85.08
2023-01-26T11:00:08.606Z,85.69
2023-01-26T11:02:36.845Z,85.44
2023-01-26T11:05:24.427Z,86.10
2023-01-26T11:07:55.322Z,84.78
2023-01-26T11:10:34.399Z,84.54
2023-01-26T11:13:20.283Z,85.06
2023-01-26T11:16:03.169Z,84.76
2023-01-26T11:19:16.204Z,84.06
2023-01-26T11:22:05.883Z,84.45
2023-01-26T11:24:42.641Z,84.46
2023-01-26T11:27:31.461Z,85.15
2023-01-26T11:30:24.007Z,85.65
2023-01-26T11:33:07.449Z,83.65
2023-01-26T11:35:54.346Z,82.22
2023-01-26T11:38:35.963Z,82.04
2023-01-26T11:41:32.469Z,82.99
2023-01-26T11:44:38.033Z,83.39
2023-01-26T11:47:36.421Z,83.28
2023-01-26T11:50:43.517Z,82.78
2023-01-26T11:53:35.782Z,81.94
2023-01-26T11:59:25.202Z,80.64
2023-01-26T12:02:01.745Z,79.54
2023-01-26T12:04:33.234Z,80.99
2023-01-26T12:07:11.576Z,80.60
2023-01-26T12:09:44.142Z,78.74
2023-01-26T12:12:17.962Z,79.52
2023-01-26T12:15:03.290Z,79.59
2023-01-26T12:18:17.174Z,78.52
2023-01-26T12:21:02.969Z,79.18
2023-01-26T12:23:51.559Z,79.54
2023-01-26T12:26:22.816Z,78.69
2023-01-26T12:29:25.677Z,78.81
2023-01-26T12:32:05.673Z,78.35
2023-01-26T12:34:33.881Z,78.24
2023-01-26T12:37:23.376Z,77.41
2023-01-26T12:40:36.224Z,77.74
2023-01-26T12:43:05.765Z,77.96
2023-01-26T12:45:39.346Z,79.99
2023-01-26T12:48:18.007Z,81.14
2023-01-26T12:50:50.806Z,80.64
2023-01-26T12:53:30.200Z,81.75
2023-01-26T12:56:13.250Z,83.43
2023-01-26T12:58:44.504Z,84.20
2023-01-26T13:01:15.959Z,85.43
2023-01-26T13:03:46.053Z,87.16
2023-01-26T13:06:24.712Z,86.76
2023-01-26T13:09:19.149Z,82.59
2023-01-26T13:11:57.096Z,84.44
2023-01-26T13:14:57.959Z,84.07
2023-01-26T13:17:55.240Z,84.46
2023-01-26T13:20:48.532Z,84.10
2023-01-26T13:23:43.625Z,87.05
2023-01-26T13:26:36.123Z,85.84
2023-01-26T13:29:39.526Z,86.68
2023-01-26T13:32:52.595Z,88.07
2023-01-26T13:35:23.066Z,88.50
2023-01-26T13:38:19.228Z,88.61
2023-01-26T13:40:50.780Z,89.52
2023-01-26T13:43:30.348Z,89.21
2023-01-26T13:46:07.175Z,88.67
2023-01-26T13:48:53.659Z,89.62
2023-01-26T13:51:28.225Z,90.06
2023-01-26T13:54:02.462Z,89.48
2023-01-26T13:56:37.556Z,89.70
2023-01-26T13:59:19.418Z,88.42
2023-01-26T14:01:48.323Z,88.12
2023-01-26T14:04:20.123Z,89.29
2023-01-26T14:06:52.959Z,89.25
2023-01-26T14:09:20.248Z,88.95
2023-01-26T14:11:56.227Z,88.65
2023-01-26T14:14:29.510Z,88.48
2023-01-26T14:16:59.240Z,90.28
2023-01-26T14:19:27.733Z,90.85
2023-01-26T14:22:01.430Z,90.63
2023-01-26T14:24:39.576Z,90.99
2023-01-26T14:27:20.511Z,91.11
2023-01-26T14:29:47.727Z,91.75
2023-01-26T14:32:16.943Z,91.19
2023-01-26T14:34:58.516Z,91.38
2023-01-26T14:37:26.492Z,91.42
2023-01-26T14:40:14.948Z,91.73
2023-01-26T14:42:42.799Z,92.56
2023-01-26T14:45:14.140Z,91.50
2023-01-26T14:47:45.452Z,92.10
2023-01-26T14:50:17.742Z,92.39
2023-01-26T14:52:45.342Z,91.93
2023-01-26T14:55:36.707Z,92.21
2023-01-26T14:58:13.266Z,92.15
2023-01-26T15:00:40.098Z,92.39
2023-01-26T15:03:23.987Z,92.39
2023-01-26T15:06:17.067Z,92.60
2023-01-26T15:08:58.407Z,92.87
2023-01-26T15:11:52.737Z,92.66
2023-01-26T15:14:44.118Z,92.82
2023-01-26T15:17:27.693Z,92.00
2023-01-26T15:19:54.475Z,92.79
2023-01-26T15:22:26.335Z,94.06
2023-01-26T15:25:20.536Z,93.32
2023-01-26T15:27:59.031Z,93.06
2023-01-26T15:30:31.890Z,92.78
2023-01-26T15:32:59.133Z,93.12
2023-01-26T15:35:30.233Z,93.79
2023-01-26T15:38:11.566Z,92.33
2023-01-26T15:40:38.717Z,93.30
2023-01-26T15:43:16.037Z,93.23
2023-01-26T15:45:47.202Z,92.37
2023-01-26T15:48:13.775Z,93.58
2023-01-26T15:50:40.390Z,93.85
2023-01-26T15:53:12.800Z,93.00
2023-01-26T15:55:39.619Z,93.10
2023-01-26T15:58:06.308Z,92.38
2023-01-26T16:00:32.969Z,92.66
2023-01-26T16:03:03.716Z,92.23
2023-01-26T16:05:30.438Z,92.65
2023-01-26T16:07:56.971Z,92.61
2023-01-26T16:10:23.699Z,92.59
2023-01-26T16:12:53.126Z,92.27
2023-01-26T16:15:55.528Z,92.79
2023-01-26T16:18:22.142Z,93.43
2023-01-26T16:20:50.082Z,93.86
2023-01-26T16:23:28.724Z,93.23
2023-01-26T16:25:55.873Z,93.40
2023-01-26T16:28:22.498Z,93.22
2023-01-26T16:30:51.279Z,92.43
2023-01-26T16:33:21.257Z,92.58
2023-01-26T16:35:48.240Z,94.21
2023-01-26T16:38:14.909Z,93.97
2023-01-26T16:40:46.334Z,93.07
2023-01-26T16:43:22.035Z,92.71
2023-01-26T16:45:50.235Z,92.92
2023-01-26T16:48:17.326Z,91.58
2023-01-26T16:50:44.890Z,91.82
2023-01-26T16:53:28.938Z,92.00
2023-01-26T16:55:56.094Z,90.88
2023-01-26T16:58:26.174Z,91.78
2023-01-26T17:00:54.165Z,92.49
2023-01-26T17:03:21.079Z,92.67
2023-01-26T17:05:47.711Z,93.13
2023-01-26T17:08:14.273Z,92.00
2023-01-26T17:10:55.496Z,92.32
2023-01-26T17:13:27.383Z,92.44
2023-01-26T17:15:56.593Z,93.15
2023-01-26T17:18:23.608Z,93.12
2023-01-26T17:20:50.198Z,92.89
2023-01-26T17:23:16.770Z,93.54
2023-01-26T17:25:43.339Z,93.12
2023-01-26T17:28:09.900Z,93.85
2023-01-26T17:30:37.459Z,94.11
2023-01-26T17:33:04.231Z,94.17
2023-01-26T17:35:30.862Z,93.36
2023-01-26T17:37:57.607Z,93.77
2023-01-26T17:40:24.227Z,94.52
2023-01-26T17:42:50.977Z,94.76
2023-01-26T17:45:17.742Z,94.48
2023-01-26T17:47:44.316Z,94.13
2023-01-26T17:50:11.192Z,93.77
2023-01-26T17:52:37.811Z,93.99
2023-01-26T17:55:06.229Z,92.97
2023-01-26T17:57:33.848Z,93.42
2023-01-26T18:00:00.531Z,92.88
2023-01-26T18:02:27.195Z,93.15
2023-01-26T18:04:53.952Z,92.48
2023-01-26T18:07:20.699Z,92.67
2023-01-26T18:09:47.256Z,92.19
2023-01-26T18:12:13.830Z,92.82
2023-01-26T18:14:40.419Z,92.23
2023-01-26T18:17:07.011Z,92.68
2023-01-26T18:19:33.843Z,92.67
2023-01-26T18:22:00.447Z,92.22
2023-01-26T18:24:27.183Z,92.37
2023-01-26T18:26:53.750Z,92.66
2023-01-26T18:29:20.310Z,92.49
2023-01-26T18:31:48.063Z,92.07
2023-01-26T18:34:14.791Z,91.74
2023-01-26T18:36:41.477Z,92.62
2023-01-26T18:39:12.873Z,92.77
2023-01-26T18:41:40.814Z,92.45
2023-01-26T18:44:08.313Z,93.03
2023-01-26T18:46:35.510Z,92.84
2023-01-26T18:49:03.492Z,93.00
2023-01-26T18:51:33.131Z,92.94
2023-01-26T18:54:00.252Z,92.98
2023-01-26T18:56:27.381Z,92.66
2023-01-26T18:58:54.786Z,92.47
2023-01-26T19:01:22.246Z,93.70
2023-01-26T19:03:55.106Z,93.66
2023-01-26T19:06:23.776Z,93.91
2023-01-26T19:08:57.635Z,93.48
2023-01-26T19:11:26.590Z,93.36
2023-01-26T19:13:53.463Z,93.24
2023-01-26T19:16:20.163Z,93.72
2023-01-26T19:18:47.091Z,93.35
2023-01-26T19:21:13.829Z,93.71
2023-01-26T19:23:42.597Z,93.16
2023-01-26T19:26:11.558Z,93.32
2023-01-26T19:28:41.220Z,93.72
2023-01-26T19:31:09.404Z,93.78
2023-01-26T19:33:36.507Z,94.16
2023-01-26T19:36:05.142Z,93.77
2023-01-26T19:38:33.260Z,93.59
2023-01-26T19:41:01.876Z,93.74
2023-01-26T19:43:28.813Z,93.45
2023-01-26T19:45:56.824Z,93.06
2023-01-26T19:48:25.769Z,93.40
2023-01-26T19:51:03.428Z,93.80
2023-01-26T19:53:32.220Z,94.36
2023-01-26T19:56:01.848Z,94.19
2023-01-26T19:58:28.477Z,93.54
2023-01-26T20:01:02.641Z,93.40
2023-01-26T20:03:29.362Z,93.46
2023-01-26T20:05:57.222Z,94.10
2023-01-26T20:08:24.573Z,94.00
2023-01-26T20:10:51.206Z,93.03
2023-01-26T20:13:17.985Z,93.48
2023-01-26T20:15:44.538Z,92.83
2023-01-26T20:18:11.210Z,92.60
2023-01-26T20:20:38.035Z,92.71
2023-01-26T20:23:04.846Z,92.37
2023-01-26T20:25:31.458Z,91.63
2023-01-26T20:27:58.017Z,92.07
2023-01-26T20:30:24.602Z,90.92
2023-01-26T20:32:54.618Z,91.17
2023-01-26T20:35:21.636Z,91.79
2023-01-26T20:37:48.283Z,91.65
2023-01-26T20:40:15.300Z,92.57
2023-01-26T20:42:41.962Z,92.71
2023-01-26T20:45:08.845Z,92.24
2023-01-26T20:47:38.207Z,92.71
2023-01-26T20:50:06.067Z,92.51
2023-01-26T20:52:32.749Z,92.30
2023-01-26T20:54:59.388Z,91.87
2023-01-26T20:57:25.989Z,92.04
2023-01-26T20:59:52.645Z,91.14
2023-01-26T21:02:19.300Z,90.78
2023-01-26T21:04:46.101Z,91.19
2023-01-26T21:07:12.983Z,90.90
2023-01-26T21:09:40.275Z,89.88
2023-01-26T21:12:06.873Z,88.75
2023-01-26T21:14:33.724Z,87.94
2023-01-26T21:17:00.502Z,88.43
2023-01-26T21:19:27.235Z,88.42
2023-01-26T21:21:53.949Z,89.56
2023-01-26T21:24:20.617Z,89.98
2023-01-26T21:26:47.976Z,91.02
2023-01-26T21:29:16.064Z,92.10
2023-01-26T21:31:45.215Z,91.14
2023-01-26T21:34:12.561Z,91.31
2023-01-26T21:36:39.200Z,91.60
2023-01-26T21:39:10.673Z,90.13
2023-01-26T21:41:55.618Z,90.43
2023-01-26T21:44:27.507Z,89.90
2023-01-26T21:46:59.886Z,89.63
2023-01-26T21:49:28.444Z,89.28
2023-01-26T21:52:14.097Z,89.07
2023-01-26T21:54:41.186Z,89.20
2023-01-26T21:57:28.338Z,87.72
2023-01-26T21:59:55.875Z,88.12
2023-01-26T22:02:23.075Z,88.04
2023-01-26T22:04:49.718Z,87.31
2023-01-26T22:07:16.330Z,87.76
2023-01-26T22:09:42.936Z,87.57
2023-01-26T22:12:09.609Z,88.63
2023-01-26T22:14:36.239Z,88.25
2023-01-26T22:17:02.854Z,88.62
2023-01-26T22:19:29.494Z,88.08
2023-01-26T22:21:56.651Z,87.37
2023-01-26T22:24:23.359Z,89.00
2023-01-26T22:26:50.169Z,87.85
2023-01-26T22:29:16.773Z,88.08
2023-01-26T22:31:43.438Z,88.03
2023-01-26T22:34:11.835Z,88.54
2023-01-26T22:36:39.229Z,88.63
2023-01-26T22:39:05.846Z,88.11
2023-01-26T22:41:34.388Z,88.47
2023-01-26T22:44:01.164Z,88.24
2023-01-26T22:46:30.253Z,87.75
2023-01-26T22:48:58.407Z,88.49
2023-01-26T22:51:29.573Z,87.70
2023-01-26T22:53:57.883Z,88.69
2023-01-26T22:56:25.185Z,88.34
2023-01-26T22:58:59.060Z,87.86
2023-01-26T23:01:31.550Z,87.66
2023-01-26T23:03:59.170Z,88.79
2023-01-26T23:06:26.334Z,87.71
2023-01-26T23:08:53.509Z,88.03
2023-01-26T23:11:25.409Z,87.93
2023-01-26T23:13:53.444Z,87.98
2023-01-26T23:16:21.386Z,88.08
2023-01-26T23:18:48.062Z,88.01
2023-01-26T23:21:14.748Z,88.79
2023-01-26T23:23:41.658Z,88.41
2023-01-26T23:26:09.613Z,88.76
2023-01-26T23:28:38.523Z,88.64
2023-01-26T23:31:05.803Z,88.17
2023-01-26T23:33:34.153Z,88.45
2023-01-26T23:36:01.026Z,87.76
2023-01-26T23:38:29.277Z,88.24
2023-01-26T23:40:56.405Z,87.50
2023-01-26T23:43:23.602Z,87.41
2023-01-26T23:45:50.878Z,87.77
2023-01-26T23:48:18.272Z,88.77
2023-01-26T23:50:45.314Z,87.97
2023-01-26T23:53:12.618Z,88.29
2023-01-26T23:55:43.490Z,87.81
2023-01-26T23:58:11.245Z,88.31
